Details for Norwegian Air International at EFHK




Go Back


Latest METAR
Local Time

EFHK 241350Z 36010KT CAVOK M11/M17 Q1036 NOSIG

24/02/2018, 16:09:33

Description
Results
Norwegian Air International Logo
Number of Pilots based at EFHK
0 Pilots Based here
Number of Norwegian Air International Flights Departed from EFHK
2 Flights Departed
Number of Norwegian Air International Flights Arrived at EFHK
3 Flights Arrived
Number of Norwegian Air International Schedules Departing from EFHK
197 Schedules
Number of Norwegian Air International Schedules Arriving at EFHK
185 Schedules
Number of Norwegian Air International Schedules Departing from EFHK availible today
17 Schedules Today
Number of Norwegian Air International Schedules Arriving at EFHK availible today
31 Schedules Today
Average Landing Rate at EFHK
-178 fpm
Norwegian Air International Average Landing Rate at EFHK
-197 fpm
Total Fuel Purchased at EFHK by Norwegian Air International
8,606.01 kgs / 18,972.81 lbs

Pilots Based at EFHK


Pilot ID
Pilot Name
Pilot Rank
No. of Flights
No. of Flying Hours
There are no pilots assigned to this hub!   Will you be the first?
Content